Time;durP1;ratioP1;P1;durP2;ratioP2;P2;SDS_P1;SDS_P2;PMS_P1;PMS_P2;Temp;Humidity;BMP_temperature;BMP_pressure;BME280_temperature;BME280_humidity;BME280_pressure;Samples;Min_cycle;Max_cycle;Signal;HPM_P1;HPM_P2
2022/07/04 00:01:14;;;;;;;0.80;0.80;;;28.50;41.30;;;;;;5046670;28;45179;-72
2022/07/04 00:03:40;;;;;;;2.03;1.00;;;28.50;41.30;;;;;;5047383;28;45197;-71
2022/07/04 00:06:07;;;;;;;1.02;0.95;;;28.50;41.40;;;;;;5047345;28;45296;-72
2022/07/04 00:08:35;;;;;;;0.65;0.65;;;28.50;41.50;;;;;;5047335;28;45221;-72
2022/07/04 00:11:02;;;;;;;0.80;0.80;;;28.40;41.40;;;;;;5047163;28;46421;-72
2022/07/04 00:13:29;;;;;;;2.35;1.20;;;28.40;41.50;;;;;;5047163;28;45187;-72
2022/07/04 00:15:56;;;;;;;1.25;1.00;;;28.40;42.10;;;;;;5047241;28;45272;-72
2022/07/04 00:18:23;;;;;;;0.80;0.80;;;28.40;41.50;;;;;;5047443;28;45372;-72
2022/07/04 00:20:49;;;;;;;0.88;0.85;;;28.40;41.50;;;;;;5047090;28;46332;-72
2022/07/04 00:23:16;;;;;;;1.00;0.90;;;28.30;41.50;;;;;;5047002;28;45337;-72
2022/07/04 00:25:44;;;;;;;0.77;0.77;;;28.30;41.50;;;;;;5047150;28;45205;-71
2022/07/04 00:28:11;;;;;;;0.88;0.88;;;28.30;41.50;;;;;;5049480;28;45279;-72
2022/07/04 00:30:38;;;;;;;1.05;0.88;;;28.30;41.50;;;;;;5067126;28;46401;-72
2022/07/04 00:33:04;;;;;;;1.42;0.93;;;28.30;41.50;;;;;;5067212;28;45228;-71
2022/07/04 00:35:31;;;;;;;2.35;0.90;;;28.30;41.60;;;;;;5067323;28;45234;-72
2022/07/04 00:37:58;;;;;;;1.10;1.00;;;28.30;41.60;;;;;;5067190;28;45274;-71
2022/07/04 00:40:25;;;;;;;0.80;0.80;;;28.20;41.60;;;;;;5067015;28;45325;-72
2022/07/04 00:42:53;;;;;;;0.80;0.80;;;28.20;41.50;;;;;;5067259;28;45205;-71
2022/07/04 00:45:20;;;;;;;0.88;0.88;;;28.20;41.60;;;;;;5066346;28;45279;-72
2022/07/04 00:47:46;;;;;;;0.88;0.88;;;28.20;41.60;;;;;;5067320;28;45357;-72
2022/07/04 00:50:13;;;;;;;1.20;0.90;;;28.20;41.70;;;;;;5066712;28;45317;-72
2022/07/04 00:52:40;;;;;;;0.90;0.90;;;28.20;41.60;;;;;;5066905;28;45238;-72
2022/07/04 00:55:08;;;;;;;0.75;0.75;;;28.20;41.60;;;;;;5066902;28;45183;-72
2022/07/04 00:57:35;;;;;;;1.40;0.85;;;28.10;41.60;;;;;;5067017;28;45318;-72
2022/07/04 01:00:03;;;;;;;1.90;0.90;;;28.10;41.60;;;;;;5067046;28;46732;-72
2022/07/04 01:02:30;;;;;;;0.65;0.65;;;28.10;41.70;;;;;;5066671;28;45268;-72
2022/07/04 01:04:57;;;;;;;1.45;1.02;;;28.10;41.80;;;;;;5066784;28;45244;-72
2022/07/04 01:07:24;;;;;;;1.08;0.90;;;28.10;41.80;;;;;;5066767;28;45289;-72
2022/07/04 01:09:50;;;;;;;0.88;0.88;;;28.10;41.70;;;;;;5066804;28;45521;-72
2022/07/04 01:12:26;;;;;;;0.80;0.80;;;28.10;41.70;;;;;;5066455;28;45269;-72
2022/07/04 01:14:53;;;;;;;0.70;0.70;;;28.10;41.80;;;;;;5066673;28;45250;-72
2022/07/04 01:17:21;;;;;;;1.30;0.82;;;28.00;41.70;;;;;;5066719;28;45413;-72
2022/07/04 01:19:48;;;;;;;0.88;0.88;;;28.00;41.80;;;;;;5066610;28;45412;-72
2022/07/04 01:22:16;;;;;;;0.70;0.70;;;28.00;41.80;;;;;;5066341;28;45232;-72
2022/07/04 01:24:43;;;;;;;0.88;0.88;;;28.00;41.70;;;;;;5066622;28;45242;-72
2022/07/04 01:27:10;;;;;;;0.70;0.70;;;28.00;42.00;;;;;;5066635;28;45248;-72
2022/07/04 01:29:36;;;;;;;1.63;0.80;;;27.90;41.80;;;;;;5052573;28;46401;-72
2022/07/04 01:32:06;;;;;;;0.70;0.60;;;27.90;41.80;;;;;;5045899;28;45293;-72
2022/07/04 01:34:33;;;;;;;1.02;0.70;;;27.90;41.70;;;;;;5045614;28;45215;-72
2022/07/04 01:37:00;;;;;;;0.90;0.90;;;27.90;41.90;;;;;;5046211;28;45258;-72
2022/07/04 01:39:28;;;;;;;0.75;0.75;;;27.90;42.00;;;;;;5046005;28;47325;-71
2022/07/04 01:41:55;;;;;;;1.45;0.70;;;27.90;41.80;;;;;;5045954;28;45383;-71
2022/07/04 01:44:22;;;;;;;0.88;0.88;;;27.90;41.90;;;;;;5047073;28;45455;-71
2022/07/04 01:46:48;;;;;;;0.70;0.70;;;27.90;42.00;;;;;;5049748;28;45405;-72
2022/07/04 01:49:15;;;;;;;1.05;0.95;;;27.80;41.80;;;;;;5049306;28;45300;-71
2022/07/04 01:51:45;;;;;;;1.00;0.80;;;27.80;42.00;;;;;;5049415;28;45255;-71
2022/07/04 01:54:12;;;;;;;0.88;0.88;;;27.80;41.90;;;;;;5049573;28;45233;-71
2022/07/04 01:56:40;;;;;;;0.90;0.90;;;27.80;42.10;;;;;;5049642;28;45198;-71
2022/07/04 01:59:07;;;;;;;1.10;0.85;;;27.80;41.90;;;;;;5049088;28;45223;-71
2022/07/04 02:01:33;;;;;;;0.60;0.60;;;27.70;41.90;;;;;;5049280;28;45264;-71
2022/07/04 02:04:00;;;;;;;0.80;0.80;;;27.70;41.90;;;;;;5049368;28;45236;-71
2022/07/04 02:06:27;;;;;;;0.85;0.85;;;27.70;42.00;;;;;;5049587;28;45357;-72
2022/07/04 02:14:23;;;;;;;0.90;0.75;;;27.70;42.60;;;;;;5046649;28;45213;-71
2022/07/04 02:16:50;;;;;;;0.77;0.77;;;27.70;41.90;;;;;;5049311;28;45186;-71
2022/07/04 02:19:17;;;;;;;0.70;0.70;;;27.70;41.90;;;;;;5048851;28;47338;-71
2022/07/04 02:21:44;;;;;;;0.80;0.80;;;27.60;41.90;;;;;;5048891;28;45301;-71
2022/07/04 02:24:11;;;;;;;0.88;0.70;;;27.60;41.90;;;;;;5048959;28;45340;-71
2022/07/04 02:26:38;;;;;;;0.70;0.70;;;27.60;42.00;;;;;;5049138;28;45457;-71
2022/07/04 02:29:06;;;;;;;0.80;0.70;;;27.60;42.00;;;;;;5057876;28;45250;-71
2022/07/04 02:31:32;;;;;;;0.70;0.70;;;27.60;42.00;;;;;;5068278;28;45236;-71
2022/07/04 02:33:59;;;;;;;1.05;0.73;;;27.60;42.10;;;;;;5068963;28;45408;-71
2022/07/04 02:36:26;;;;;;;0.93;0.93;;;27.60;42.10;;;;;;5069118;28;45443;-71
2022/07/04 02:38:53;;;;;;;0.70;0.70;;;27.60;42.10;;;;;;5068768;28;46398;-71
2022/07/04 02:41:20;;;;;;;1.02;0.90;;;27.50;42.00;;;;;;5068826;28;45199;-71
2022/07/04 02:43:47;;;;;;;0.60;0.60;;;27.50;42.10;;;;;;5068860;28;45195;-71
2022/07/04 02:46:16;;;;;;;0.80;0.80;;;27.50;42.10;;;;;;5068905;28;45473;-71
2022/07/04 02:48:42;;;;;;;1.67;0.90;;;27.50;42.00;;;;;;5068576;28;46358;-71
2022/07/04 02:51:09;;;;;;;0.73;0.73;;;27.50;42.00;;;;;;5068678;28;45209;-71
2022/07/04 02:53:36;;;;;;;1.27;0.70;;;27.50;42.20;;;;;;5068659;28;45219;-71
2022/07/04 02:56:04;;;;;;;0.70;0.60;;;27.50;42.10;;;;;;5067548;28;45239;-71
2022/07/04 02:58:31;;;;;;;0.73;0.73;;;27.50;42.10;;;;;;5068283;28;47839;-71
2022/07/04 03:00:58;;;;;;;0.95;0.80;;;27.50;42.10;;;;;;5068400;28;45426;-71
2022/07/04 03:03:26;;;;;;;0.70;0.70;;;27.40;42.10;;;;;;5068651;28;45205;-71
2022/07/04 03:05:53;;;;;;;0.80;0.75;;;27.40;42.60;;;;;;5068827;28;45384;-71
2022/07/04 03:08:20;;;;;;;0.75;0.75;;;27.40;42.10;;;;;;5068011;28;45531;-71
2022/07/04 03:10:47;;;;;;;1.13;0.80;;;27.40;42.10;;;;;;5068288;28;45234;-71
2022/07/04 03:13:13;;;;;;;0.80;0.80;;;27.40;42.10;;;;;;5068455;28;45359;-71
2022/07/04 03:15:40;;;;;;;1.15;0.70;;;27.40;42.10;;;;;;5068289;28;45392;-70
2022/07/04 03:18:07;;;;;;;0.75;0.75;;;27.30;42.10;;;;;;5067193;28;46438;-71
2022/07/04 03:20:35;;;;;;;0.60;0.60;;;27.30;42.10;;;;;;5068215;28;45139;-71
2022/07/04 03:23:02;;;;;;;0.65;0.65;;;27.30;42.10;;;;;;5068302;28;45271;-71
2022/07/04 03:25:29;;;;;;;0.80;0.80;;;27.30;42.20;;;;;;5068455;28;45467;-71
2022/07/04 03:27:55;;;;;;;1.15;0.65;;;27.30;42.20;;;;;;5067957;28;46395;-71
2022/07/04 03:30:22;;;;;;;1.77;0.80;;;27.20;42.10;;;;;;5048279;28;45233;-71
2022/07/04 03:32:49;;;;;;;0.85;0.80;;;27.30;42.20;;;;;;5047952;28;45246;-71
2022/07/04 03:35:16;;;;;;;1.05;0.80;;;27.20;42.10;;;;;;5047987;28;45349;-71
2022/07/04 03:37:44;;;;;;;0.70;0.70;;;27.20;42.20;;;;;;5047421;28;46730;-71
2022/07/04 03:40:11;;;;;;;1.10;0.63;;;27.20;42.10;;;;;;5047557;28;45227;-71
2022/07/04 03:42:38;;;;;;;0.70;0.70;;;27.20;42.10;;;;;;5047883;28;45254;-71
2022/07/04 03:45:06;;;;;;;0.68;0.68;;;27.20;42.10;;;;;;5047744;28;45174;-71
2022/07/04 03:47:33;;;;;;;0.65;0.65;;;27.10;42.20;;;;;;5047425;28;46676;-71
2022/07/04 03:50:00;;;;;;;0.70;0.70;;;27.10;42.20;;;;;;5047406;28;45334;-71
2022/07/04 03:52:27;;;;;;;0.80;0.68;;;27.10;42.10;;;;;;5047593;28;45212;-71
2022/07/04 03:54:55;;;;;;;0.68;0.68;;;27.10;42.20;;;;;;5047534;28;45254;-71
2022/07/04 03:57:22;;;;;;;0.75;0.75;;;27.10;42.20;;;;;;5047112;28;46729;-72
2022/07/04 03:59:48;;;;;;;0.68;0.68;;;27.10;42.30;;;;;;5047330;28;45322;-72
2022/07/04 04:02:15;;;;;;;2.28;0.60;;;27.00;42.20;;;;;;5046594;28;45266;-71
2022/07/04 04:07:26;;;;;;;0.80;0.70;;;27.00;42.20;;;;;;5043806;28;45428;-71
2022/07/04 04:09:54;;;;;;;1.42;0.80;;;27.00;42.10;;;;;;5046430;28;45250;-71
2022/07/04 04:12:21;;;;;;;0.70;0.70;;;27.00;42.10;;;;;;5046672;28;45250;-71
2022/07/04 04:14:48;;;;;;;0.57;0.57;;;27.00;42.20;;;;;;5047384;28;45359;-72
2022/07/04 04:17:15;;;;;;;0.70;0.70;;;27.00;42.20;;;;;;5047183;28;45483;-71
2022/07/04 04:19:41;;;;;;;0.90;0.80;;;27.00;42.20;;;;;;5046930;28;45300;-71
2022/07/04 04:22:08;;;;;;;0.80;0.80;;;27.00;42.20;;;;;;5047111;28;45211;-71
2022/07/04 04:24:35;;;;;;;0.68;0.68;;;27.00;42.40;;;;;;5047157;28;45413;-71
2022/07/04 04:27:04;;;;;;;0.60;0.60;;;26.90;42.30;;;;;;5046489;28;46402;-71
2022/07/04 04:29:30;;;;;;;0.70;0.70;;;26.90;42.30;;;;;;5057038;28;45427;-71
2022/07/04 04:31:57;;;;;;;0.60;0.60;;;26.90;42.30;;;;;;5067218;28;45182;-71
2022/07/04 04:34:24;;;;;;;1.00;0.70;;;26.90;42.30;;;;;;5067421;28;45177;-71
2022/07/04 04:36:51;;;;;;;0.60;0.60;;;26.90;42.30;;;;;;5066946;28;46385;-71
2022/07/04 04:39:17;;;;;;;0.88;0.60;;;26.90;42.30;;;;;;5066868;28;45299;-71
2022/07/04 04:41:44;;;;;;;0.73;0.70;;;26.90;42.40;;;;;;5067167;28;45261;-71
2022/07/04 04:44:12;;;;;;;0.85;0.85;;;26.90;42.40;;;;;;5067238;28;45182;-71
2022/07/04 04:46:39;;;;;;;0.60;0.60;;;26.80;42.30;;;;;;5066795;28;47340;-71
2022/07/04 04:49:06;;;;;;;0.70;0.70;;;26.80;42.20;;;;;;5066753;28;45388;-71
2022/07/04 04:51:33;;;;;;;0.90;0.85;;;26.80;42.40;;;;;;5066896;28;45278;-70
2022/07/04 04:54:00;;;;;;;0.70;0.70;;;26.80;42.40;;;;;;5066260;28;45400;-71
2022/07/04 04:56:26;;;;;;;2.30;0.90;;;26.80;42.40;;;;;;5066664;28;46419;-71
2022/07/04 04:58:53;;;;;;;0.70;0.70;;;26.80;42.50;;;;;;5066746;28;45231;-71
2022/07/04 05:01:21;;;;;;;0.77;0.77;;;26.80;42.50;;;;;;5066885;28;45222;-71
2022/07/04 05:03:48;;;;;;;0.60;0.60;;;26.70;42.50;;;;;;5066783;28;45403;-71
2022/07/04 05:06:15;;;;;;;0.95;0.70;;;26.70;42.50;;;;;;5066461;28;46772;-71
2022/07/04 05:08:42;;;;;;;0.73;0.73;;;26.70;42.60;;;;;;5066278;28;45206;-71
2022/07/04 05:11:08;;;;;;;0.88;0.70;;;26.70;42.50;;;;;;5066920;28;45238;-72
2022/07/04 05:13:35;;;;;;;1.63;0.90;;;26.70;42.50;;;;;;5066917;28;45476;-71
2022/07/04 05:16:02;;;;;;;1.20;0.90;;;26.70;42.60;;;;;;5066502;28;45313;-71
2022/07/04 05:18:30;;;;;;;0.73;0.70;;;26.70;42.60;;;;;;5066567;28;45304;-72
2022/07/04 05:20:57;;;;;;;0.85;0.80;;;26.70;42.60;;;;;;5070164;28;45135;-72
2022/07/04 05:23:24;;;;;;;0.63;0.60;;;26.70;42.70;;;;;;5070343;28;45205;-72
2022/07/04 05:25:51;;;;;;;0.77;0.77;;;26.70;42.70;;;;;;5070000;28;46686;-71
2022/07/04 05:28:17;;;;;;;0.85;0.80;;;26.70;42.70;;;;;;5069897;28;45250;-71
2022/07/04 05:30:44;;;;;;;0.73;0.73;;;26.70;42.70;;;;;;5070016;28;45394;-72
2022/07/04 05:33:11;;;;;;;0.82;0.63;;;26.70;42.70;;;;;;5070233;28;45464;-71
2022/07/04 05:35:39;;;;;;;0.65;0.60;;;26.70;42.70;;;;;;5069947;28;46949;-72
2022/07/04 05:38:06;;;;;;;0.98;0.90;;;26.70;42.70;;;;;;5068941;28;45185;-72
2022/07/04 05:40:33;;;;;;;1.58;0.77;;;26.70;42.70;;;;;;5070081;28;45292;-71
2022/07/04 05:43:00;;;;;;;0.77;0.70;;;26.70;42.70;;;;;;5069989;28;45285;-72
2022/07/04 05:45:27;;;;;;;0.70;0.70;;;26.60;42.60;;;;;;5069826;28;45562;-71
2022/07/04 05:47:54;;;;;;;1.70;0.82;;;26.60;42.70;;;;;;5069706;28;45177;-71
2022/07/04 05:50:21;;;;;;;0.77;0.70;;;26.60;42.60;;;;;;5070006;28;45253;-71
2022/07/04 05:52:49;;;;;;;0.82;0.75;;;26.60;42.70;;;;;;5069888;28;45315;-72
2022/07/04 05:55:16;;;;;;;0.68;0.68;;;26.60;42.70;;;;;;5069660;28;46676;-72
2022/07/04 05:57:43;;;;;;;0.70;0.70;;;26.60;42.70;;;;;;5069915;28;45229;-71
2022/07/04 06:00:12;;;;;;;0.93;0.90;;;26.60;42.70;;;;;;5069612;28;45181;-71
2022/07/04 06:02:38;;;;;;;1.02;0.95;;;26.60;42.70;;;;;;5069721;28;45281;-71
2022/07/04 06:05:06;;;;;;;0.80;0.80;;;26.60;42.70;;;;;;5069282;28;46348;-71
2022/07/04 06:07:32;;;;;;;0.80;0.80;;;26.60;42.70;;;;;;5069027;28;45286;-72
2022/07/04 06:10:00;;;;;;;1.55;0.93;;;26.60;42.80;;;;;;5069623;28;45183;-71
2022/07/04 06:12:27;;;;;;;1.00;0.90;;;26.60;42.80;;;;;;5069699;28;45311;-71
2022/07/04 06:14:54;;;;;;;0.77;0.77;;;26.60;42.80;;;;;;5069157;28;46382;-71
2022/07/04 06:17:21;;;;;;;0.90;0.80;;;26.60;42.80;;;;;;5069342;28;45530;-71
2022/07/04 06:19:48;;;;;;;0.75;0.75;;;26.60;42.90;;;;;;5069539;28;45166;-71
2022/07/04 06:22:14;;;;;;;0.90;0.90;;;26.60;42.90;;;;;;5069173;28;45480;-69
2022/07/04 06:24:41;;;;;;;0.80;0.80;;;26.60;42.90;;;;;;5068441;28;46646;-71
2022/07/04 06:27:10;;;;;;;0.80;0.80;;;26.60;42.80;;;;;;5069099;28;45365;-71
2022/07/04 06:29:36;;;;;;;0.73;0.70;;;26.60;42.80;;;;;;5069039;28;45254;-71
2022/07/04 06:32:04;;;;;;;0.80;0.80;;;26.60;42.80;;;;;;5069294;28;45228;-71
2022/07/04 06:37:15;;;;;;;1.20;1.05;;;26.60;42.90;;;;;;5066432;28;45198;-71
2022/07/04 06:39:42;;;;;;;0.90;0.90;;;26.60;42.80;;;;;;5069026;28;45217;-71
2022/07/04 06:42:10;;;;;;;1.10;1.10;;;26.60;42.90;;;;;;5069291;28;45396;-72
2022/07/04 06:44:37;;;;;;;1.23;1.00;;;26.60;42.80;;;;;;5068802;28;46739;-71
2022/07/04 06:47:04;;;;;;;0.80;0.80;;;26.70;42.90;;;;;;5068669;28;45343;-71
2022/07/04 06:49:31;;;;;;;1.15;1.00;;;26.70;42.90;;;;;;5068909;28;45249;-71
2022/07/04 06:51:57;;;;;;;1.27;1.10;;;26.70;42.90;;;;;;5068978;28;45258;-71
2022/07/04 06:54:24;;;;;;;2.60;1.17;;;26.70;42.90;;;;;;5068763;28;47342;-71
2022/07/04 06:56:51;;;;;;;1.25;1.10;;;26.70;42.90;;;;;;5068659;28;45354;-71
2022/07/04 06:59:20;;;;;;;1.33;1.10;;;26.70;42.90;;;;;;5068737;28;45269;-72
2022/07/04 07:01:46;;;;;;;1.20;1.20;;;26.70;42.90;;;;;;5069044;28;45456;-71
2022/07/04 07:04:13;;;;;;;1.30;1.20;;;26.70;42.90;;;;;;5068484;28;45409;-71
2022/07/04 07:06:40;;;;;;;1.15;1.05;;;26.70;42.90;;;;;;5068184;28;45327;-71
2022/07/04 07:09:07;;;;;;;1.30;1.20;;;26.70;42.90;;;;;;5068635;28;45239;-72
2022/07/04 07:11:34;;;;;;;2.38;1.27;;;26.70;42.90;;;;;;5068649;28;45272;-72
2022/07/04 07:14:00;;;;;;;1.33;1.23;;;26.70;42.90;;;;;;5067614;28;46404;-71
2022/07/04 07:16:28;;;;;;;3.65;1.35;;;26.80;43.50;;;;;;5068552;28;45576;-71
2022/07/04 07:18:55;;;;;;;2.10;1.50;;;26.70;42.80;;;;;;5068373;28;45311;-71
2022/07/04 07:21:22;;;;;;;2.47;1.50;;;26.80;42.90;;;;;;5068691;28;45341;-72
2022/07/04 07:23:49;;;;;;;2.35;1.52;;;26.80;42.90;;;;;;5068004;28;45458;-71
2022/07/04 07:26:16;;;;;;;2.08;1.50;;;26.70;42.90;;;;;;5068172;28;45210;-71
2022/07/04 07:28:43;;;;;;;2.42;1.75;;;26.80;42.90;;;;;;5062113;28;45155;-72
2022/07/04 07:31:09;;;;;;;1.40;1.30;;;26.70;42.90;;;;;;5048143;28;45291;-72
2022/07/04 07:33:37;;;;;;;1.80;1.70;;;26.70;42.90;;;;;;5047890;28;46650;-71
2022/07/04 07:36:05;;;;;;;3.80;1.48;;;26.80;42.90;;;;;;5047825;28;45158;-72
2022/07/04 07:38:32;;;;;;;2.42;1.40;;;26.80;42.90;;;;;;5048088;28;45212;-71
2022/07/04 07:40:59;;;;;;;2.60;1.50;;;26.80;42.90;;;;;;5047826;28;45476;-71
2022/07/04 07:43:26;;;;;;;1.67;1.58;;;26.80;42.90;;;;;;5046929;28;45300;-72
2022/07/04 07:45:53;;;;;;;3.08;1.40;;;26.80;42.80;;;;;;5047778;28;45363;-71
2022/07/04 07:48:20;;;;;;;3.88;1.50;;;26.80;42.80;;;;;;5047692;28;45252;-71
2022/07/04 07:50:48;;;;;;;2.08;1.60;;;26.90;42.80;;;;;;5047774;28;45377;-71
2022/07/04 07:53:15;;;;;;;1.52;1.42;;;26.90;42.70;;;;;;5047447;28;45301;-72
2022/07/04 07:55:42;;;;;;;1.70;1.60;;;26.90;42.80;;;;;;5047655;28;45346;-71
2022/07/04 07:58:09;;;;;;;2.75;1.50;;;26.90;42.70;;;;;;5047582;28;45253;-71
2022/07/04 08:00:36;;;;;;;4.10;1.65;;;26.90;43.30;;;;;;5047343;28;45215;-71
2022/07/04 08:05:48;;;;;;;1.88;1.42;;;27.00;42.70;;;;;;5044192;28;45242;-71
2022/07/04 08:08:15;;;;;;;2.25;1.67;;;27.00;42.70;;;;;;5047197;28;45309;-71
2022/07/04 08:10:42;;;;;;;2.15;1.83;;;27.00;42.70;;;;;;5047896;28;45309;-71
2022/07/04 08:13:08;;;;;;;1.60;1.50;;;27.00;42.70;;;;;;5047130;28;45554;-71
2022/07/04 08:15:35;;;;;;;2.22;2.00;;;27.00;42.80;;;;;;5047364;28;45238;-71
2022/07/04 08:18:02;;;;;;;2.15;1.50;;;27.00;42.70;;;;;;5047367;28;45143;-71
2022/07/04 08:20:29;;;;;;;1.52;1.38;;;27.00;42.80;;;;;;5047486;28;45444;-71
2022/07/04 08:22:57;;;;;;;1.77;1.50;;;27.10;42.80;;;;;;5047172;28;46640;-71
2022/07/04 08:25:24;;;;;;;3.55;1.52;;;27.10;42.80;;;;;;5047186;28;45282;-71
2022/07/04 08:27:51;;;;;;;2.22;1.70;;;27.10;42.80;;;;;;5047204;28;45184;-72
2022/07/04 08:30:18;;;;;;;2.13;1.50;;;27.10;42.80;;;;;;5066537;28;45377;-71
2022/07/04 08:32:45;;;;;;;1.60;1.38;;;27.10;42.70;;;;;;5067099;28;47318;-71
2022/07/04 08:35:12;;;;;;;1.38;1.27;;;27.10;42.70;;;;;;5067271;28;45304;-71
2022/07/04 08:37:40;;;;;;;2.75;1.80;;;27.10;42.80;;;;;;5067389;28;45139;-71
2022/07/04 08:40:09;;;;;;;1.50;1.40;;;27.20;42.90;;;;;;5067184;28;45324;-71
2022/07/04 08:42:37;;;;;;;2.25;1.50;;;27.20;42.80;;;;;;5066731;28;45314;-71
2022/07/04 08:45:04;;;;;;;1.70;1.60;;;27.20;42.70;;;;;;5067082;28;45384;-71
2022/07/04 08:47:33;;;;;;;3.67;1.60;;;27.20;42.80;;;;;;5067101;28;45232;-71
2022/07/04 08:50:03;;;;;;;2.80;1.58;;;27.20;42.70;;;;;;5066862;28;45347;-71
2022/07/04 08:52:35;;;;;;;1.90;1.50;;;27.30;42.70;;;;;;5066136;28;45247;-72
2022/07/04 09:00:32;;;;;;;2.22;1.70;;;27.30;42.60;;;;;;5064734;28;45372;-71
2022/07/04 09:02:59;;;;;;;3.50;1.70;;;27.30;42.60;;;;;;5066687;28;47370;-70
2022/07/04 09:05:26;;;;;;;1.50;1.40;;;27.40;42.60;;;;;;5065991;28;45174;-71
2022/07/04 09:07:53;;;;;;;1.40;1.30;;;27.30;42.60;;;;;;5066444;28;45326;-72
2022/07/04 09:10:20;;;;;;;3.78;1.40;;;27.40;42.60;;;;;;5067061;28;45393;-72
2022/07/04 09:12:48;;;;;;;3.65;1.67;;;27.40;42.80;;;;;;5066667;28;47301;-72
2022/07/04 09:15:15;;;;;;;2.63;1.70;;;27.40;42.60;;;;;;5066410;28;45194;-72
2022/07/04 09:17:42;;;;;;;3.30;1.95;;;27.50;42.70;;;;;;5066832;28;45217;-72
2022/07/04 09:20:16;;;;;;;1.70;1.60;;;27.50;42.60;;;;;;5066707;28;45396;-72
2022/07/04 09:22:43;;;;;;;1.55;1.45;;;27.50;42.70;;;;;;5066636;28;46342;-72
2022/07/04 09:25:12;;;;;;;2.05;1.40;;;27.50;42.60;;;;;;5066557;28;45340;-72
2022/07/04 09:27:41;;;;;;;2.22;1.85;;;27.50;42.90;;;;;;5066726;28;45225;-72
2022/07/04 09:30:11;;;;;;;3.17;1.85;;;27.50;42.60;;;;;;5066725;28;45486;-72
2022/07/04 09:32:38;;;;;;;1.60;1.50;;;27.60;42.70;;;;;;5066363;28;45384;-72
2022/07/04 09:35:06;;;;;;;2.97;1.45;;;27.60;42.70;;;;;;5066375;28;45234;-71
2022/07/04 09:37:40;;;;;;;3.13;1.42;;;27.60;43.00;;;;;;5066439;28;45133;-71
2022/07/04 09:40:08;;;;;;;2.15;1.65;;;27.70;42.70;;;;;;5066455;28;45546;-71
2022/07/04 09:42:41;;;;;;;1.55;1.45;;;27.70;42.60;;;;;;5066258;28;47316;-71
2022/07/04 09:45:11;;;;;;;2.00;1.73;;;27.70;42.70;;;;;;5066091;28;45159;-67
2022/07/04 09:47:38;;;;;;;1.55;1.40;;;27.80;42.60;;;;;;5066354;28;45313;-67
2022/07/04 09:50:06;;;;;;;3.22;1.63;;;27.90;42.60;;;;;;5066433;28;45463;-67
2022/07/04 09:52:34;;;;;;;3.00;1.45;;;27.90;42.40;;;;;;5066025;28;46731;-67
2022/07/04 09:55:02;;;;;;;1.80;1.50;;;28.00;42.90;;;;;;5065520;28;45385;-67
2022/07/04 09:57:30;;;;;;;1.67;1.33;;;28.00;42.60;;;;;;5065255;28;45365;-67
2022/07/04 09:59:57;;;;;;;5.75;1.92;;;28.00;42.70;;;;;;5065674;28;45240;-67
2022/07/04 10:02:25;;;;;;;1.85;1.60;;;27.90;43.00;;;;;;5065374;28;46384;-68
2022/07/04 10:04:53;;;;;;;1.83;1.30;;;27.70;43.60;;;;;;5064781;28;45308;-68
2022/07/04 10:07:33;;;;;;;4.90;1.60;;;27.60;43.80;;;;;;5069027;28;45276;-67
2022/07/04 10:09:59;;;;;;;2.50;1.40;;;27.70;44.30;;;;;;5069249;28;45352;-67
2022/07/04 10:12:27;;;;;;;4.43;1.50;;;27.60;44.20;;;;;;5068448;28;45375;-67
2022/07/04 10:14:54;;;;;;;1.83;1.52;;;27.60;44.80;;;;;;5068798;28;45325;-67
2022/07/04 10:17:21;;;;;;;2.50;1.50;;;27.50;44.00;;;;;;5068935;28;45202;-67
2022/07/04 10:19:51;;;;;;;1.80;1.35;;;27.50;43.80;;;;;;5069195;28;45188;-67
2022/07/04 10:22:21;;;;;;;4.28;1.48;;;27.40;43.80;;;;;;5068861;28;45238;-68
2022/07/04 10:24:48;;;;;;;2.20;1.33;;;27.40;43.90;;;;;;5068017;28;45255;-67
2022/07/04 10:27:15;;;;;;;6.18;1.70;;;27.40;44.10;;;;;;5057346;28;45380;-68
2022/07/04 10:29:41;;;;;;;3.47;1.40;;;27.40;44.20;;;;;;5062840;28;45408;-67
2022/07/04 10:32:08;;;;;;;2.42;1.40;;;27.40;44.30;;;;;;5068423;28;45348;-67
2022/07/04 10:34:40;;;;;;;2.85;1.50;;;27.40;44.40;;;;;;5068412;28;45169;-67
2022/07/04 10:37:08;;;;;;;3.60;1.38;;;27.40;44.50;;;;;;5068380;28;45310;-68
2022/07/04 10:39:35;;;;;;;2.72;1.20;;;27.50;44.60;;;;;;5068195;28;45253;-67
2022/07/04 10:42:02;;;;;;;2.75;1.42;;;27.50;44.50;;;;;;5068198;28;46459;-67
2022/07/04 10:44:37;;;;;;;4.90;1.45;;;27.50;44.30;;;;;;5068307;28;45225;-68
2022/07/04 10:47:04;;;;;;;1.30;1.20;;;27.50;44.30;;;;;;5068215;28;45155;-68
2022/07/04 10:49:31;;;;;;;2.42;1.20;;;27.60;44.30;;;;;;5068621;28;45230;-68
2022/07/04 10:52:10;;;;;;;2.15;1.20;;;27.50;44.40;;;;;;5067607;28;46630;-67
2022/07/04 10:54:38;;;;;;;1.27;1.10;;;27.60;44.20;;;;;;5067961;28;45181;-67
2022/07/04 10:57:15;;;;;;;3.35;1.20;;;27.50;44.40;;;;;;5067889;28;45259;-67
2022/07/04 10:59:42;;;;;;;3.67;1.33;;;27.60;44.20;;;;;;5067092;28;45303;-68
2022/07/04 11:02:25;;;;;;;1.45;1.35;;;27.70;44.40;;;;;;5058934;28;45388;-67
2022/07/04 11:04:54;;;;;;;1.42;1.33;;;27.70;44.30;;;;;;5060738;28;45322;-67
2022/07/04 11:07:23;;;;;;;1.58;1.23;;;27.80;44.20;;;;;;5049571;28;45263;-67
2022/07/04 11:10:22;;;;;;;2.65;1.40;;;27.80;44.00;;;;;;5048300;28;45643;-67
2022/07/04 11:13:22;;;;;;;1.17;1.13;;;27.90;44.20;;;;;;5048172;28;46623;-68
2022/07/04 11:16:02;;;;;;;2.22;1.38;;;27.90;43.70;;;;;;4986016;28;45412;-68
2022/07/04 11:18:29;;;;;;;1.70;1.30;;;28.00;43.80;;;;;;4985439;28;45408;-68
2022/07/04 11:20:56;;;;;;;2.17;1.27;;;28.10;43.80;;;;;;5018590;28;45389;-68
2022/07/04 11:23:25;;;;;;;1.25;1.15;;;28.10;42.70;;;;;;5046706;28;45474;-68
2022/07/04 11:25:54;;;;;;;1.30;1.10;;;28.10;42.90;;;;;;5047487;28;45313;-67
2022/07/04 11:28:21;;;;;;;1.55;1.17;;;28.10;42.80;;;;;;5050411;28;45242;-67
2022/07/04 11:30:51;;;;;;;1.35;1.25;;;28.20;42.60;;;;;;5068495;28;45456;-68
2022/07/04 11:33:19;;;;;;;1.60;1.17;;;28.20;42.60;;;;;;5067053;28;47305;-67
2022/07/04 11:36:02;;;;;;;2.08;1.20;;;28.30;43.20;;;;;;5067901;28;45150;-67
2022/07/04 11:38:44;;;;;;;1.50;1.40;;;28.40;43.40;;;;;;5066987;28;45563;-67
2022/07/04 11:46:39;;;;;;;1.60;1.33;;;28.40;43.50;;;;;;5064868;28;45300;-68
2022/07/04 11:49:10;;;;;;;2.60;1.38;;;28.40;43.40;;;;;;5067439;28;45353;-68
2022/07/04 11:51:42;;;;;;;2.70;1.30;;;28.50;43.40;;;;;;5067801;28;45190;-68
2022/07/04 11:54:10;;;;;;;1.52;1.38;;;28.50;43.00;;;;;;5066838;28;45581;-67
2022/07/04 11:56:37;;;;;;;3.63;1.40;;;28.50;42.40;;;;;;5066724;28;45308;-67
2022/07/04 11:59:10;;;;;;;1.33;1.20;;;28.60;42.40;;;;;;5067323;28;45177;-68
2022/07/04 12:01:37;;;;;;;1.50;1.40;;;28.70;42.10;;;;;;5067538;28;45424;-68
2022/07/04 12:04:13;;;;;;;1.55;1.15;;;28.60;42.10;;;;;;5067129;28;46330;-68
2022/07/04 12:06:40;;;;;;;2.10;1.50;;;28.70;42.20;;;;;;5067078;28;45155;-67
2022/07/04 12:09:07;;;;;;;2.22;1.40;;;28.80;41.60;;;;;;5067268;28;45495;-67
2022/07/04 12:11:54;;;;;;;2.72;1.33;;;28.80;41.30;;;;;;5067557;28;45380;-67
2022/07/04 12:14:21;;;;;;;2.03;1.30;;;28.70;41.30;;;;;;5066813;28;45257;-67
2022/07/04 12:16:48;;;;;;;3.75;1.52;;;28.80;41.40;;;;;;5066921;28;45186;-67
2022/07/04 12:19:15;;;;;;;2.45;1.10;;;28.70;41.40;;;;;;5066850;28;45302;-67
2022/07/04 12:21:43;;;;;;;1.60;1.30;;;28.70;41.50;;;;;;5066952;28;45317;-67
2022/07/04 12:24:10;;;;;;;3.33;1.05;;;28.80;41.70;;;;;;5066616;28;45471;-67
2022/07/04 12:26:46;;;;;;;3.80;1.20;;;28.80;41.20;;;;;;5066946;28;45280;-67
2022/07/04 12:29:21;;;;;;;2.25;1.30;;;28.80;40.70;;;;;;5066610;28;45313;-68
2022/07/04 12:31:51;;;;;;;1.40;1.20;;;28.80;40.80;;;;;;5067114;28;45412;-67
2022/07/04 12:34:18;;;;;;;1.77;1.55;;;28.80;40.90;;;;;;5066612;28;46725;-67
2022/07/04 12:36:51;;;;;;;1.52;1.10;;;28.80;40.80;;;;;;5066756;28;45299;-67
2022/07/04 12:39:31;;;;;;;3.83;1.15;;;28.80;40.70;;;;;;5066678;28;45344;-68
2022/07/04 12:42:05;;;;;;;2.80;1.15;;;28.80;40.90;;;;;;5066774;28;45193;-68
2022/07/04 12:44:34;;;;;;;1.85;1.30;;;28.80;40.90;;;;;;5066629;28;45717;-67
2022/07/04 12:47:01;;;;;;;5.40;1.30;;;28.70;41.10;;;;;;5066459;28;45135;-68
2022/07/04 12:49:27;;;;;;;1.10;1.00;;;28.60;41.10;;;;;;5066216;28;45309;-68
2022/07/04 12:52:04;;;;;;;5.18;1.20;;;28.50;41.10;;;;;;5066918;28;45549;-68
2022/07/04 12:54:31;;;;;;;2.28;1.27;;;28.50;41.10;;;;;;5066216;28;45284;-69
2022/07/04 12:57:07;;;;;;;2.33;1.30;;;28.50;41.10;;;;;;5066257;28;45388;-68
2022/07/04 12:59:36;;;;;;;1.40;1.02;;;28.50;41.30;;;;;;5066567;28;45298;-68
2022/07/04 13:02:03;;;;;;;1.58;1.10;;;28.50;41.10;;;;;;5067097;28;45245;-68
2022/07/04 13:04:30;;;;;;;1.70;1.30;;;28.60;41.20;;;;;;5066475;28;46390;-68
2022/07/04 13:06:59;;;;;;;3.72;1.30;;;28.70;41.30;;;;;;5066454;28;45257;-68
2022/07/04 13:09:25;;;;;;;1.30;1.20;;;28.70;41.50;;;;;;5066774;28;45189;-68
2022/07/04 13:14:38;;;;;;;1.55;1.27;;;28.90;41.20;;;;;;5063887;28;45279;-68
2022/07/04 13:17:05;;;;;;;3.20;1.60;;;29.00;40.90;;;;;;5066236;28;45351;-70
2022/07/04 13:19:31;;;;;;;1.40;1.13;;;29.00;40.70;;;;;;5069197;28;45258;-68